sensor_id;sensor_type;location;lat;lon;timestamp;P1;durP1;ratioP1;P2;durP2;ratioP2
20945;SDS011;10632;51.276;7.116;2023-04-30T00:00:27;7.35;;;3.10;;
20945;SDS011;10632;51.276;7.116;2023-04-30T00:02:54;9.77;;;3.58;;
20945;SDS011;10632;51.276;7.116;2023-04-30T00:05:21;8.23;;;3.30;;
20945;SDS011;10632;51.276;7.116;2023-04-30T00:07:48;9.10;;;3.80;;
20945;SDS011;10632;51.276;7.116;2023-04-30T00:10:15;7.82;;;3.22;;
20945;SDS011;10632;51.276;7.116;2023-04-30T00:12:44;12.30;;;3.67;;
20945;SDS011;10632;51.276;7.116;2023-04-30T00:15:11;7.35;;;2.97;;
20945;SDS011;10632;51.276;7.116;2023-04-30T00:17:38;11.50;;;3.30;;
20945;SDS011;10632;51.276;7.116;2023-04-30T00:20:06;9.80;;;3.30;;
20945;SDS011;10632;51.276;7.116;2023-04-30T00:22:33;11.38;;;3.50;;
20945;SDS011;10632;51.276;7.116;2023-04-30T00:25:00;8.95;;;3.28;;
20945;SDS011;10632;51.276;7.116;2023-04-30T00:27:28;10.50;;;3.65;;
20945;SDS011;10632;51.276;7.116;2023-04-30T00:29:57;8.93;;;3.47;;
20945;SDS011;10632;51.276;7.116;2023-04-30T00:32:25;7.57;;;2.92;;
20945;SDS011;10632;51.276;7.116;2023-04-30T00:34:52;9.38;;;2.95;;
20945;SDS011;10632;51.276;7.116;2023-04-30T00:37:19;9.52;;;3.15;;
20945;SDS011;10632;51.276;7.116;2023-04-30T00:39:46;9.85;;;3.47;;
20945;SDS011;10632;51.276;7.116;2023-04-30T00:42:14;10.07;;;3.33;;
20945;SDS011;10632;51.276;7.116;2023-04-30T00:44:41;10.55;;;3.42;;
20945;SDS011;10632;51.276;7.116;2023-04-30T00:47:09;7.97;;;2.70;;
20945;SDS011;10632;51.276;7.116;2023-04-30T00:49:37;9.40;;;2.95;;
20945;SDS011;10632;51.276;7.116;2023-04-30T00:52:04;10.15;;;3.20;;
20945;SDS011;10632;51.276;7.116;2023-04-30T00:54:31;10.52;;;3.38;;
20945;SDS011;10632;51.276;7.116;2023-04-30T00:56:58;9.20;;;3.08;;
20945;SDS011;10632;51.276;7.116;2023-04-30T00:59:26;10.25;;;3.38;;
20945;SDS011;10632;51.276;7.116;2023-04-30T01:01:54;8.45;;;3.13;;
20945;SDS011;10632;51.276;7.116;2023-04-30T01:04:22;8.52;;;3.40;;
20945;SDS011;10632;51.276;7.116;2023-04-30T01:06:50;11.07;;;3.55;;
20945;SDS011;10632;51.276;7.116;2023-04-30T01:09:17;10.05;;;3.10;;
20945;SDS011;10632;51.276;7.116;2023-04-30T01:11:47;11.10;;;3.42;;
20945;SDS011;10632;51.276;7.116;2023-04-30T01:14:17;9.07;;;3.10;;
20945;SDS011;10632;51.276;7.116;2023-04-30T01:16:47;8.48;;;3.30;;
20945;SDS011;10632;51.276;7.116;2023-04-30T01:19:19;8.15;;;3.13;;
20945;SDS011;10632;51.276;7.116;2023-04-30T01:21:56;9.95;;;3.10;;
20945;SDS011;10632;51.276;7.116;2023-04-30T01:24:31;8.93;;;3.20;;
20945;SDS011;10632;51.276;7.116;2023-04-30T01:27:06;11.10;;;2.95;;
20945;SDS011;10632;51.276;7.116;2023-04-30T01:29:35;8.27;;;3.20;;
20945;SDS011;10632;51.276;7.116;2023-04-30T01:32:02;8.98;;;3.45;;
20945;SDS011;10632;51.276;7.116;2023-04-30T01:34:29;7.93;;;2.80;;
20945;SDS011;10632;51.276;7.116;2023-04-30T01:37:01;8.45;;;2.83;;
20945;SDS011;10632;51.276;7.116;2023-04-30T01:39:34;11.88;;;3.20;;
20945;SDS011;10632;51.276;7.116;2023-04-30T01:42:06;7.47;;;2.97;;
20945;SDS011;10632;51.276;7.116;2023-04-30T01:44:48;7.88;;;2.95;;
20945;SDS011;10632;51.276;7.116;2023-04-30T01:47:20;8.57;;;3.30;;
20945;SDS011;10632;51.276;7.116;2023-04-30T01:49:50;8.50;;;3.03;;
20945;SDS011;10632;51.276;7.116;2023-04-30T01:52:20;12.13;;;3.35;;
20945;SDS011;10632;51.276;7.116;2023-04-30T01:54:50;9.73;;;3.65;;
20945;SDS011;10632;51.276;7.116;2023-04-30T01:57:20;10.35;;;3.53;;
20945;SDS011;10632;51.276;7.116;2023-04-30T01:59:51;10.60;;;3.45;;
20945;SDS011;10632;51.276;7.116;2023-04-30T02:02:18;7.68;;;3.10;;
20945;SDS011;10632;51.276;7.116;2023-04-30T02:04:45;11.85;;;3.67;;
20945;SDS011;10632;51.276;7.116;2023-04-30T02:07:13;8.48;;;3.08;;
20945;SDS011;10632;51.276;7.116;2023-04-30T02:09:43;9.07;;;3.42;;
20945;SDS011;10632;51.276;7.116;2023-04-30T02:12:10;9.95;;;3.28;;
20945;SDS011;10632;51.276;7.116;2023-04-30T02:14:37;8.32;;;3.03;;
20945;SDS011;10632;51.276;7.116;2023-04-30T02:17:06;8.07;;;3.10;;
20945;SDS011;10632;51.276;7.116;2023-04-30T02:19:33;8.82;;;3.35;;
20945;SDS011;10632;51.276;7.116;2023-04-30T02:22:00;8.15;;;3.03;;
20945;SDS011;10632;51.276;7.116;2023-04-30T02:24:27;9.27;;;3.25;;
20945;SDS011;10632;51.276;7.116;2023-04-30T02:26:55;8.82;;;3.33;;
20945;SDS011;10632;51.276;7.116;2023-04-30T02:29:22;8.80;;;3.22;;
20945;SDS011;10632;51.276;7.116;2023-04-30T02:31:49;12.65;;;4.13;;
20945;SDS011;10632;51.276;7.116;2023-04-30T02:34:17;10.38;;;3.50;;
20945;SDS011;10632;51.276;7.116;2023-04-30T02:36:45;13.93;;;3.90;;
20945;SDS011;10632;51.276;7.116;2023-04-30T02:39:12;9.02;;;3.35;;
20945;SDS011;10632;51.276;7.116;2023-04-30T02:41:39;10.55;;;3.75;;
20945;SDS011;10632;51.276;7.116;2023-04-30T02:44:06;10.18;;;3.65;;
20945;SDS011;10632;51.276;7.116;2023-04-30T02:46:33;12.68;;;3.95;;
20945;SDS011;10632;51.276;7.116;2023-04-30T02:49:00;10.32;;;4.00;;
20945;SDS011;10632;51.276;7.116;2023-04-30T02:51:29;8.82;;;3.28;;
20945;SDS011;10632;51.276;7.116;2023-04-30T02:53:57;11.30;;;3.40;;
20945;SDS011;10632;51.276;7.116;2023-04-30T02:56:25;9.50;;;3.45;;
20945;SDS011;10632;51.276;7.116;2023-04-30T02:58:52;11.77;;;4.10;;
20945;SDS011;10632;51.276;7.116;2023-04-30T03:01:20;8.32;;;3.58;;
20945;SDS011;10632;51.276;7.116;2023-04-30T03:03:47;8.57;;;3.05;;
20945;SDS011;10632;51.276;7.116;2023-04-30T03:06:14;16.27;;;4.78;;
20945;SDS011;10632;51.276;7.116;2023-04-30T03:08:43;10.68;;;3.35;;
20945;SDS011;10632;51.276;7.116;2023-04-30T03:11:10;10.90;;;4.15;;
20945;SDS011;10632;51.276;7.116;2023-04-30T03:13:37;14.80;;;4.20;;
20945;SDS011;10632;51.276;7.116;2023-04-30T03:16:05;16.65;;;4.15;;
20945;SDS011;10632;51.276;7.116;2023-04-30T03:18:32;13.05;;;4.05;;
20945;SDS011;10632;51.276;7.116;2023-04-30T03:20:59;11.65;;;4.10;;
20945;SDS011;10632;51.276;7.116;2023-04-30T03:23:26;10.40;;;3.60;;
20945;SDS011;10632;51.276;7.116;2023-04-30T03:25:55;9.63;;;3.35;;
20945;SDS011;10632;51.276;7.116;2023-04-30T03:28:22;9.75;;;3.25;;
20945;SDS011;10632;51.276;7.116;2023-04-30T03:30:49;9.68;;;3.75;;
20945;SDS011;10632;51.276;7.116;2023-04-30T03:33:16;14.05;;;4.57;;
20945;SDS011;10632;51.276;7.116;2023-04-30T03:35:43;10.13;;;3.67;;
20945;SDS011;10632;51.276;7.116;2023-04-30T03:38:11;12.30;;;3.88;;
20945;SDS011;10632;51.276;7.116;2023-04-30T03:40:38;12.65;;;4.60;;
20945;SDS011;10632;51.276;7.116;2023-04-30T03:43:07;10.70;;;4.38;;
20945;SDS011;10632;51.276;7.116;2023-04-30T03:45:34;14.80;;;4.57;;
20945;SDS011;10632;51.276;7.116;2023-04-30T03:48:01;12.88;;;4.07;;
20945;SDS011;10632;51.276;7.116;2023-04-30T03:50:28;10.75;;;3.65;;
20945;SDS011;10632;51.276;7.116;2023-04-30T03:52:55;10.23;;;4.00;;
20945;SDS011;10632;51.276;7.116;2023-04-30T03:55:22;10.55;;;4.15;;
20945;SDS011;10632;51.276;7.116;2023-04-30T03:57:50;9.25;;;3.35;;
20945;SDS011;10632;51.276;7.116;2023-04-30T04:00:19;9.57;;;3.83;;
20945;SDS011;10632;51.276;7.116;2023-04-30T04:02:46;9.57;;;3.65;;
20945;SDS011;10632;51.276;7.116;2023-04-30T04:05:14;8.85;;;3.60;;
20945;SDS011;10632;51.276;7.116;2023-04-30T04:07:41;10.38;;;3.75;;
20945;SDS011;10632;51.276;7.116;2023-04-30T04:10:08;9.57;;;3.72;;
20945;SDS011;10632;51.276;7.116;2023-04-30T04:12:35;12.50;;;4.18;;
20945;SDS011;10632;51.276;7.116;2023-04-30T04:15:03;12.77;;;4.20;;
20945;SDS011;10632;51.276;7.116;2023-04-30T04:17:32;11.13;;;4.00;;
20945;SDS011;10632;51.276;7.116;2023-04-30T04:19:59;13.70;;;4.15;;
20945;SDS011;10632;51.276;7.116;2023-04-30T04:22:26;11.57;;;3.70;;
20945;SDS011;10632;51.276;7.116;2023-04-30T04:24:53;11.90;;;4.35;;
20945;SDS011;10632;51.276;7.116;2023-04-30T04:27:20;11.32;;;3.70;;
20945;SDS011;10632;51.276;7.116;2023-04-30T04:29:49;14.75;;;4.90;;
20945;SDS011;10632;51.276;7.116;2023-04-30T04:32:16;12.70;;;4.82;;
20945;SDS011;10632;51.276;7.116;2023-04-30T04:34:45;14.18;;;5.03;;
20945;SDS011;10632;51.276;7.116;2023-04-30T04:37:13;10.85;;;3.50;;
20945;SDS011;10632;51.276;7.116;2023-04-30T04:39:41;10.43;;;4.20;;
20945;SDS011;10632;51.276;7.116;2023-04-30T04:42:09;13.50;;;4.75;;
20945;SDS011;10632;51.276;7.116;2023-04-30T04:44:36;16.80;;;4.63;;
20945;SDS011;10632;51.276;7.116;2023-04-30T04:47:03;12.45;;;4.50;;
20945;SDS011;10632;51.276;7.116;2023-04-30T04:49:30;12.70;;;4.30;;
20945;SDS011;10632;51.276;7.116;2023-04-30T04:51:59;10.40;;;3.75;;
20945;SDS011;10632;51.276;7.116;2023-04-30T04:54:26;13.57;;;4.28;;
20945;SDS011;10632;51.276;7.116;2023-04-30T04:56:54;9.70;;;4.03;;
20945;SDS011;10632;51.276;7.116;2023-04-30T04:59:21;13.27;;;4.47;;
20945;SDS011;10632;51.276;7.116;2023-04-30T05:01:48;12.40;;;4.38;;
20945;SDS011;10632;51.276;7.116;2023-04-30T05:04:15;11.65;;;4.30;;
20945;SDS011;10632;51.276;7.116;2023-04-30T05:06:43;14.50;;;5.07;;
20945;SDS011;10632;51.276;7.116;2023-04-30T05:09:11;16.88;;;5.38;;
20945;SDS011;10632;51.276;7.116;2023-04-30T05:11:38;12.55;;;4.43;;
20945;SDS011;10632;51.276;7.116;2023-04-30T05:14:07;14.32;;;4.72;;
20945;SDS011;10632;51.276;7.116;2023-04-30T05:16:34;12.63;;;4.78;;
20945;SDS011;10632;51.276;7.116;2023-04-30T05:19:02;15.25;;;5.22;;
20945;SDS011;10632;51.276;7.116;2023-04-30T05:21:29;15.18;;;4.88;;
20945;SDS011;10632;51.276;7.116;2023-04-30T05:23:57;14.07;;;5.00;;
20945;SDS011;10632;51.276;7.116;2023-04-30T05:26:26;14.70;;;5.20;;
20945;SDS011;10632;51.276;7.116;2023-04-30T05:28:53;10.73;;;4.30;;
20945;SDS011;10632;51.276;7.116;2023-04-30T05:31:20;13.68;;;5.00;;
20945;SDS011;10632;51.276;7.116;2023-04-30T05:33:47;14.38;;;4.53;;
20945;SDS011;10632;51.276;7.116;2023-04-30T05:36:14;12.02;;;4.68;;
20945;SDS011;10632;51.276;7.116;2023-04-30T05:38:41;12.27;;;3.97;;
20945;SDS011;10632;51.276;7.116;2023-04-30T05:41:11;13.60;;;4.78;;
20945;SDS011;10632;51.276;7.116;2023-04-30T05:43:40;13.55;;;4.50;;
20945;SDS011;10632;51.276;7.116;2023-04-30T05:46:07;12.25;;;4.30;;
20945;SDS011;10632;51.276;7.116;2023-04-30T05:48:34;12.48;;;4.80;;
20945;SDS011;10632;51.276;7.116;2023-04-30T05:51:03;12.48;;;4.47;;
20945;SDS011;10632;51.276;7.116;2023-04-30T05:53:31;12.35;;;4.38;;
20945;SDS011;10632;51.276;7.116;2023-04-30T05:55:58;11.80;;;4.53;;
20945;SDS011;10632;51.276;7.116;2023-04-30T05:58:25;16.67;;;4.47;;
20945;SDS011;10632;51.276;7.116;2023-04-30T06:00:54;10.52;;;3.88;;
20945;SDS011;10632;51.276;7.116;2023-04-30T06:03:21;11.50;;;4.15;;
20945;SDS011;10632;51.276;7.116;2023-04-30T06:05:49;13.40;;;4.10;;
20945;SDS011;10632;51.276;7.116;2023-04-30T06:08:16;13.13;;;4.00;;
20945;SDS011;10632;51.276;7.116;2023-04-30T06:10:43;15.63;;;4.85;;
20945;SDS011;10632;51.276;7.116;2023-04-30T06:13:10;14.80;;;4.50;;
20945;SDS011;10632;51.276;7.116;2023-04-30T06:15:38;12.27;;;4.50;;
20945;SDS011;10632;51.276;7.116;2023-04-30T06:18:08;13.45;;;4.35;;
20945;SDS011;10632;51.276;7.116;2023-04-30T06:20:36;19.95;;;5.13;;
20945;SDS011;10632;51.276;7.116;2023-04-30T06:23:03;11.32;;;4.90;;
20945;SDS011;10632;51.276;7.116;2023-04-30T06:25:31;14.30;;;4.95;;
20945;SDS011;10632;51.276;7.116;2023-04-30T06:27:58;12.35;;;4.28;;
20945;SDS011;10632;51.276;7.116;2023-04-30T06:30:25;12.48;;;5.05;;
20945;SDS011;10632;51.276;7.116;2023-04-30T06:32:54;12.05;;;4.97;;
20945;SDS011;10632;51.276;7.116;2023-04-30T06:35:23;15.40;;;4.80;;
20945;SDS011;10632;51.276;7.116;2023-04-30T06:37:50;10.65;;;4.53;;
20945;SDS011;10632;51.276;7.116;2023-04-30T06:40:17;12.65;;;4.30;;
20945;SDS011;10632;51.276;7.116;2023-04-30T06:42:44;12.27;;;4.45;;
20945;SDS011;10632;51.276;7.116;2023-04-30T06:45:11;15.75;;;5.50;;
20945;SDS011;10632;51.276;7.116;2023-04-30T06:47:39;12.48;;;4.63;;
20945;SDS011;10632;51.276;7.116;2023-04-30T06:50:06;14.25;;;4.80;;
20945;SDS011;10632;51.276;7.116;2023-04-30T06:52:35;11.18;;;4.60;;
20945;SDS011;10632;51.276;7.116;2023-04-30T06:55:03;15.65;;;4.82;;
20945;SDS011;10632;51.276;7.116;2023-04-30T06:57:30;10.05;;;4.18;;
20945;SDS011;10632;51.276;7.116;2023-04-30T06:59:58;11.95;;;4.45;;
20945;SDS011;10632;51.276;7.116;2023-04-30T07:02:26;21.83;;;5.05;;
20945;SDS011;10632;51.276;7.116;2023-04-30T07:04:53;14.38;;;4.50;;
20945;SDS011;10632;51.276;7.116;2023-04-30T07:07:20;12.68;;;4.00;;
20945;SDS011;10632;51.276;7.116;2023-04-30T07:09:49;13.10;;;4.45;;
20945;SDS011;10632;51.276;7.116;2023-04-30T07:12:17;9.93;;;4.07;;
20945;SDS011;10632;51.276;7.116;2023-04-30T07:14:44;12.55;;;4.10;;
20945;SDS011;10632;51.276;7.116;2023-04-30T07:17:11;10.40;;;4.22;;
20945;SDS011;10632;51.276;7.116;2023-04-30T07:19:39;10.63;;;4.03;;
20945;SDS011;10632;51.276;7.116;2023-04-30T07:22:06;10.77;;;3.83;;
20945;SDS011;10632;51.276;7.116;2023-04-30T07:24:33;10.23;;;4.00;;
20945;SDS011;10632;51.276;7.116;2023-04-30T07:27:02;9.32;;;4.10;;
20945;SDS011;10632;51.276;7.116;2023-04-30T07:29:31;11.25;;;4.22;;
20945;SDS011;10632;51.276;7.116;2023-04-30T07:31:58;11.73;;;3.85;;
20945;SDS011;10632;51.276;7.116;2023-04-30T07:34:25;11.90;;;4.07;;
20945;SDS011;10632;51.276;7.116;2023-04-30T07:36:53;11.20;;;3.88;;
20945;SDS011;10632;51.276;7.116;2023-04-30T07:39:20;9.57;;;3.40;;
20945;SDS011;10632;51.276;7.116;2023-04-30T07:41:47;9.13;;;3.13;;
20945;SDS011;10632;51.276;7.116;2023-04-30T07:44:16;7.60;;;3.05;;
20945;SDS011;10632;51.276;7.116;2023-04-30T07:46:43;8.00;;;3.00;;
20945;SDS011;10632;51.276;7.116;2023-04-30T07:49:10;8.85;;;3.40;;
20945;SDS011;10632;51.276;7.116;2023-04-30T07:51:37;9.85;;;3.17;;
20945;SDS011;10632;51.276;7.116;2023-04-30T07:54:06;8.90;;;3.58;;
20945;SDS011;10632;51.276;7.116;2023-04-30T07:56:33;7.63;;;3.08;;
20945;SDS011;10632;51.276;7.116;2023-04-30T07:59:00;7.80;;;2.95;;
20945;SDS011;10632;51.276;7.116;2023-04-30T08:01:29;8.57;;;3.15;;
20945;SDS011;10632;51.276;7.116;2023-04-30T08:03:56;6.53;;;2.90;;
20945;SDS011;10632;51.276;7.116;2023-04-30T08:06:23;8.05;;;2.83;;
20945;SDS011;10632;51.276;7.116;2023-04-30T08:08:51;8.93;;;3.05;;
20945;SDS011;10632;51.276;7.116;2023-04-30T08:11:18;7.95;;;3.22;;
20945;SDS011;10632;51.276;7.116;2023-04-30T08:13:45;8.63;;;3.10;;
20945;SDS011;10632;51.276;7.116;2023-04-30T08:16:13;6.45;;;2.75;;
20945;SDS011;10632;51.276;7.116;2023-04-30T08:18:42;6.63;;;2.60;;
20945;SDS011;10632;51.276;7.116;2023-04-30T08:21:10;8.80;;;3.45;;
20945;SDS011;10632;51.276;7.116;2023-04-30T08:23:38;8.57;;;2.97;;
20945;SDS011;10632;51.276;7.116;2023-04-30T08:26:05;7.70;;;3.15;;
20945;SDS011;10632;51.276;7.116;2023-04-30T08:28:32;7.97;;;3.20;;
20945;SDS011;10632;51.276;7.116;2023-04-30T08:31:00;8.23;;;3.00;;
20945;SDS011;10632;51.276;7.116;2023-04-30T08:33:27;9.35;;;2.88;;
20945;SDS011;10632;51.276;7.116;2023-04-30T08:35:57;5.10;;;1.98;;
20945;SDS011;10632;51.276;7.116;2023-04-30T08:38:24;3.55;;;1.42;;
20945;SDS011;10632;51.276;7.116;2023-04-30T08:40:54;3.83;;;1.67;;
20945;SDS011;10632;51.276;7.116;2023-04-30T08:43:22;3.60;;;1.35;;
20945;SDS011;10632;51.276;7.116;2023-04-30T08:45:49;3.58;;;1.40;;
20945;SDS011;10632;51.276;7.116;2023-04-30T08:48:17;3.55;;;1.30;;
20945;SDS011;10632;51.276;7.116;2023-04-30T08:50:45;2.92;;;1.30;;
20945;SDS011;10632;51.276;7.116;2023-04-30T08:53:13;2.55;;;1.17;;
20945;SDS011;10632;51.276;7.116;2023-04-30T08:55:41;2.30;;;0.95;;
20945;SDS011;10632;51.276;7.116;2023-04-30T08:58:08;2.60;;;1.10;;
20945;SDS011;10632;51.276;7.116;2023-04-30T09:00:36;3.67;;;1.60;;
20945;SDS011;10632;51.276;7.116;2023-04-30T09:03:04;3.72;;;1.60;;
20945;SDS011;10632;51.276;7.116;2023-04-30T09:05:31;5.75;;;1.77;;
20945;SDS011;10632;51.276;7.116;2023-04-30T09:07:58;4.13;;;1.80;;
20945;SDS011;10632;51.276;7.116;2023-04-30T09:10:27;3.42;;;1.50;;
20945;SDS011;10632;51.276;7.116;2023-04-30T09:12:58;3.03;;;1.40;;
20945;SDS011;10632;51.276;7.116;2023-04-30T09:15:26;3.60;;;1.60;;
20945;SDS011;10632;51.276;7.116;2023-04-30T09:18:06;5.47;;;2.40;;
20945;SDS011;10632;51.276;7.116;2023-04-30T09:20:34;5.65;;;2.33;;
20945;SDS011;10632;51.276;7.116;2023-04-30T09:23:04;8.95;;;2.30;;
20945;SDS011;10632;51.276;7.116;2023-04-30T09:25:38;2.78;;;1.52;;
20945;SDS011;10632;51.276;7.116;2023-04-30T09:28:06;5.28;;;2.15;;
20945;SDS011;10632;51.276;7.116;2023-04-30T09:30:34;6.35;;;1.70;;
20945;SDS011;10632;51.276;7.116;2023-04-30T09:33:01;6.50;;;1.67;;
20945;SDS011;10632;51.276;7.116;2023-04-30T09:35:29;3.33;;;1.40;;
20945;SDS011;10632;51.276;7.116;2023-04-30T09:37:57;2.78;;;1.35;;
20945;SDS011;10632;51.276;7.116;2023-04-30T09:40:33;3.40;;;1.33;;
20945;SDS011;10632;51.276;7.116;2023-04-30T09:43:02;2.55;;;1.15;;
20945;SDS011;10632;51.276;7.116;2023-04-30T09:45:39;2.40;;;0.98;;
20945;SDS011;10632;51.276;7.116;2023-04-30T09:48:07;2.67;;;1.10;;
20945;SDS011;10632;51.276;7.116;2023-04-30T09:50:39;2.17;;;0.98;;
20945;SDS011;10632;51.276;7.116;2023-04-30T09:53:06;1.42;;;0.88;;
20945;SDS011;10632;51.276;7.116;2023-04-30T09:55:35;3.10;;;1.30;;
20945;SDS011;10632;51.276;7.116;2023-04-30T09:58:05;1.73;;;1.02;;
20945;SDS011;10632;51.276;7.116;2023-04-30T10:00:32;3.13;;;1.20;;
20945;SDS011;10632;51.276;7.116;2023-04-30T10:03:01;3.15;;;1.48;;
20945;SDS011;10632;51.276;7.116;2023-04-30T10:05:32;2.70;;;1.00;;
20945;SDS011;10632;51.276;7.116;2023-04-30T10:08:00;3.22;;;1.20;;
20945;SDS011;10632;51.276;7.116;2023-04-30T10:10:27;2.90;;;1.33;;
20945;SDS011;10632;51.276;7.116;2023-04-30T10:12:55;2.33;;;1.10;;
20945;SDS011;10632;51.276;7.116;2023-04-30T10:15:27;2.65;;;1.00;;
20945;SDS011;10632;51.276;7.116;2023-04-30T10:17:56;2.67;;;1.15;;
20945;SDS011;10632;51.276;7.116;2023-04-30T10:20:26;3.15;;;0.90;;
20945;SDS011;10632;51.276;7.116;2023-04-30T10:22:53;2.05;;;0.70;;
20945;SDS011;10632;51.276;7.116;2023-04-30T10:25:21;2.38;;;1.17;;
20945;SDS011;10632;51.276;7.116;2023-04-30T10:27:51;2.20;;;1.02;;
20945;SDS011;10632;51.276;7.116;2023-04-30T10:30:18;1.48;;;0.88;;
20945;SDS011;10632;51.276;7.116;2023-04-30T10:32:50;3.15;;;0.90;;
20945;SDS011;10632;51.276;7.116;2023-04-30T10:35:20;2.08;;;0.90;;
20945;SDS011;10632;51.276;7.116;2023-04-30T10:37:53;1.90;;;0.85;;
20945;SDS011;10632;51.276;7.116;2023-04-30T10:40:25;1.52;;;0.90;;
20945;SDS011;10632;51.276;7.116;2023-04-30T10:42:52;2.47;;;0.80;;
20945;SDS011;10632;51.276;7.116;2023-04-30T10:45:22;1.67;;;0.70;;
20945;SDS011;10632;51.276;7.116;2023-04-30T10:48:02;4.70;;;1.85;;
20945;SDS011;10632;51.276;7.116;2023-04-30T10:50:29;7.57;;;2.45;;
20945;SDS011;10632;51.276;7.116;2023-04-30T10:53:00;5.57;;;1.25;;
20945;SDS011;10632;51.276;7.116;2023-04-30T10:55:28;2.88;;;0.90;;
20945;SDS011;10632;51.276;7.116;2023-04-30T10:57:56;1.35;;;0.60;;
20945;SDS011;10632;51.276;7.116;2023-04-30T11:00:24;1.90;;;0.60;;
20945;SDS011;10632;51.276;7.116;2023-04-30T11:02:54;1.20;;;0.65;;
20945;SDS011;10632;51.276;7.116;2023-04-30T11:05:24;1.55;;;0.57;;
20945;SDS011;10632;51.276;7.116;2023-04-30T11:07:59;0.88;;;0.50;;
20945;SDS011;10632;51.276;7.116;2023-04-30T11:10:26;0.70;;;0.50;;
20945;SDS011;10632;51.276;7.116;2023-04-30T11:12:54;1.13;;;0.52;;
20945;SDS011;10632;51.276;7.116;2023-04-30T11:15:23;1.70;;;0.60;;
20945;SDS011;10632;51.276;7.116;2023-04-30T11:17:54;1.42;;;0.70;;
20945;SDS011;10632;51.276;7.116;2023-04-30T11:20:22;1.23;;;0.75;;
20945;SDS011;10632;51.276;7.116;2023-04-30T11:25:39;0.98;;;0.70;;
20945;SDS011;10632;51.276;7.116;2023-04-30T11:28:06;1.38;;;0.50;;
20945;SDS011;10632;51.276;7.116;2023-04-30T11:30:34;1.27;;;0.60;;
20945;SDS011;10632;51.276;7.116;2023-04-30T11:33:01;1.00;;;0.60;;
20945;SDS011;10632;51.276;7.116;2023-04-30T11:35:28;2.10;;;0.70;;
20945;SDS011;10632;51.276;7.116;2023-04-30T11:37:56;1.55;;;0.60;;
20945;SDS011;10632;51.276;7.116;2023-04-30T11:40:24;1.40;;;0.70;;
20945;SDS011;10632;51.276;7.116;2023-04-30T11:42:54;0.88;;;0.60;;
20945;SDS011;10632;51.276;7.116;2023-04-30T11:45:21;1.42;;;0.65;;
20945;SDS011;10632;51.276;7.116;2023-04-30T11:47:49;1.65;;;0.63;;
20945;SDS011;10632;51.276;7.116;2023-04-30T11:50:17;1.55;;;0.88;;
20945;SDS011;10632;51.276;7.116;2023-04-30T11:52:50;1.05;;;0.70;;
20945;SDS011;10632;51.276;7.116;2023-04-30T11:55:18;1.80;;;0.80;;
20945;SDS011;10632;51.276;7.116;2023-04-30T11:57:46;2.42;;;0.90;;
20945;SDS011;10632;51.276;7.116;2023-04-30T12:00:16;1.33;;;0.75;;
20945;SDS011;10632;51.276;7.116;2023-04-30T12:02:45;1.77;;;0.70;;
20945;SDS011;10632;51.276;7.116;2023-04-30T12:05:13;1.40;;;0.70;;
20945;SDS011;10632;51.276;7.116;2023-04-30T12:07:44;1.27;;;0.65;;
20945;SDS011;10632;51.276;7.116;2023-04-30T12:10:11;1.10;;;0.57;;
20945;SDS011;10632;51.276;7.116;2023-04-30T12:12:39;2.35;;;0.70;;
20945;SDS011;10632;51.276;7.116;2023-04-30T12:15:09;2.83;;;0.80;;
20945;SDS011;10632;51.276;7.116;2023-04-30T12:17:38;1.73;;;0.90;;
20945;SDS011;10632;51.276;7.116;2023-04-30T12:20:08;1.40;;;0.70;;
20945;SDS011;10632;51.276;7.116;2023-04-30T12:22:36;1.20;;;0.63;;
20945;SDS011;10632;51.276;7.116;2023-04-30T12:25:07;1.20;;;0.70;;
20945;SDS011;10632;51.276;7.116;2023-04-30T12:27:35;2.08;;;0.80;;
20945;SDS011;10632;51.276;7.116;2023-04-30T12:30:04;1.15;;;0.70;;
20945;SDS011;10632;51.276;7.116;2023-04-30T12:32:36;1.20;;;0.70;;
20945;SDS011;10632;51.276;7.116;2023-04-30T12:35:08;1.48;;;0.65;;
20945;SDS011;10632;51.276;7.116;2023-04-30T12:37:35;1.48;;;0.65;;
20945;SDS011;10632;51.276;7.116;2023-04-30T12:40:07;0.77;;;0.57;;
20945;SDS011;10632;51.276;7.116;2023-04-30T12:42:34;1.45;;;0.73;;
20945;SDS011;10632;51.276;7.116;2023-04-30T12:45:02;1.15;;;0.60;;
20945;SDS011;10632;51.276;7.116;2023-04-30T12:47:29;1.38;;;0.63;;
20945;SDS011;10632;51.276;7.116;2023-04-30T12:49:56;1.10;;;0.50;;
20945;SDS011;10632;51.276;7.116;2023-04-30T12:52:25;1.13;;;0.60;;
20945;SDS011;10632;51.276;7.116;2023-04-30T12:54:52;1.10;;;0.60;;
20945;SDS011;10632;51.276;7.116;2023-04-30T12:57:20;1.08;;;0.52;;
20945;SDS011;10632;51.276;7.116;2023-04-30T12:59:57;0.73;;;0.40;;
20945;SDS011;10632;51.276;7.116;2023-04-30T13:02:24;1.67;;;0.60;;
20945;SDS011;10632;51.276;7.116;2023-04-30T13:04:52;1.58;;;0.60;;
20945;SDS011;10632;51.276;7.116;2023-04-30T13:07:19;1.90;;;0.57;;
20945;SDS011;10632;51.276;7.116;2023-04-30T13:09:51;1.20;;;0.70;;
20945;SDS011;10632;51.276;7.116;2023-04-30T13:12:18;1.63;;;0.80;;
20945;SDS011;10632;51.276;7.116;2023-04-30T13:14:46;1.98;;;0.70;;
20945;SDS011;10632;51.276;7.116;2023-04-30T13:17:13;1.75;;;1.00;;
20945;SDS011;10632;51.276;7.116;2023-04-30T13:19:40;1.63;;;0.63;;
20945;SDS011;10632;51.276;7.116;2023-04-30T13:22:07;1.08;;;0.50;;
20945;SDS011;10632;51.276;7.116;2023-04-30T13:24:34;1.27;;;0.63;;
20945;SDS011;10632;51.276;7.116;2023-04-30T13:27:04;2.78;;;0.80;;
20945;SDS011;10632;51.276;7.116;2023-04-30T13:29:31;4.20;;;1.00;;
20945;SDS011;10632;51.276;7.116;2023-04-30T13:31:58;2.28;;;1.00;;
20945;SDS011;10632;51.276;7.116;2023-04-30T13:34:25;1.45;;;0.80;;
20945;SDS011;10632;51.276;7.116;2023-04-30T13:36:52;1.95;;;0.77;;
20945;SDS011;10632;51.276;7.116;2023-04-30T13:39:20;2.25;;;0.85;;
20945;SDS011;10632;51.276;7.116;2023-04-30T13:41:47;1.50;;;0.85;;
20945;SDS011;10632;51.276;7.116;2023-04-30T13:44:16;1.27;;;0.73;;
20945;SDS011;10632;51.276;7.116;2023-04-30T13:46:43;1.08;;;0.65;;
20945;SDS011;10632;51.276;7.116;2023-04-30T13:49:10;3.05;;;0.68;;
20945;SDS011;10632;51.276;7.116;2023-04-30T13:51:37;1.60;;;0.70;;
20945;SDS011;10632;51.276;7.116;2023-04-30T13:54:05;1.23;;;0.65;;
20945;SDS011;10632;51.276;7.116;2023-04-30T13:56:32;2.10;;;0.90;;
20945;SDS011;10632;51.276;7.116;2023-04-30T13:58:59;1.90;;;0.80;;
20945;SDS011;10632;51.276;7.116;2023-04-30T14:01:28;3.25;;;0.80;;
20945;SDS011;10632;51.276;7.116;2023-04-30T14:03:56;3.90;;;1.20;;
20945;SDS011;10632;51.276;7.116;2023-04-30T14:06:23;2.67;;;1.13;;
20945;SDS011;10632;51.276;7.116;2023-04-30T14:08:50;2.60;;;1.10;;
20945;SDS011;10632;51.276;7.116;2023-04-30T14:11:18;2.55;;;0.70;;
20945;SDS011;10632;51.276;7.116;2023-04-30T14:13:45;1.27;;;0.80;;
20945;SDS011;10632;51.276;7.116;2023-04-30T14:16:12;2.65;;;1.10;;
20945;SDS011;10632;51.276;7.116;2023-04-30T14:18:41;2.10;;;0.70;;
20945;SDS011;10632;51.276;7.116;2023-04-30T14:21:09;1.40;;;0.60;;
20945;SDS011;10632;51.276;7.116;2023-04-30T14:23:36;1.30;;;0.77;;
20945;SDS011;10632;51.276;7.116;2023-04-30T14:26:03;1.17;;;0.57;;
20945;SDS011;10632;51.276;7.116;2023-04-30T14:28:30;3.72;;;0.98;;
20945;SDS011;10632;51.276;7.116;2023-04-30T14:30:58;2.85;;;0.73;;
20945;SDS011;10632;51.276;7.116;2023-04-30T14:33:25;1.40;;;0.80;;
20945;SDS011;10632;51.276;7.116;2023-04-30T14:35:53;1.42;;;0.70;;
20945;SDS011;10632;51.276;7.116;2023-04-30T14:38:20;1.83;;;0.70;;
20945;SDS011;10632;51.276;7.116;2023-04-30T14:40:48;1.48;;;0.80;;
20945;SDS011;10632;51.276;7.116;2023-04-30T14:43:15;2.50;;;0.82;;
20945;SDS011;10632;51.276;7.116;2023-04-30T14:45:42;1.98;;;0.73;;
20945;SDS011;10632;51.276;7.116;2023-04-30T14:48:10;2.33;;;0.90;;
20945;SDS011;10632;51.276;7.116;2023-04-30T14:50:37;1.67;;;0.70;;